createdAt,value
2018-07-14T00:04:57.216Z,15.60
2018-07-14T00:10:32.971Z,8.65
2018-07-14T00:16:02.139Z,11.80
2018-07-14T00:21:37.133Z,9.53
2018-07-14T00:27:06.579Z,8.45
2018-07-14T00:32:35.824Z,6.97
2018-07-14T00:38:05.338Z,9.68
2018-07-14T00:43:35.907Z,7.85
2018-07-14T00:49:06.497Z,10.45
2018-07-14T00:54:35.812Z,10.72
2018-07-14T01:00:05.285Z,8.25
2018-07-14T01:05:34.824Z,13.00
2018-07-14T01:11:22.960Z,9.88
2018-07-14T01:16:52.248Z,8.33
2018-07-14T01:22:21.477Z,8.00
2018-07-14T01:27:50.703Z,7.90
2018-07-14T01:33:19.912Z,6.33
2018-07-14T01:38:49.208Z,11.95
2018-07-14T01:44:18.496Z,7.65
2018-07-14T01:49:48.444Z,9.15
2018-07-14T01:55:18.067Z,8.03
2018-07-14T02:00:47.401Z,8.08
2018-07-14T02:06:17.722Z,8.00
2018-07-14T02:11:46.997Z,6.12
2018-07-14T02:17:16.722Z,7.90
2018-07-14T02:22:47.167Z,6.67
2018-07-14T02:28:16.452Z,6.33
2018-07-14T02:33:45.731Z,5.65
2018-07-14T02:39:14.976Z,7.40
2018-07-14T02:44:44.217Z,6.47
2018-07-14T02:50:13.433Z,6.45
2018-07-14T02:55:42.702Z,5.47
2018-07-14T03:01:13.012Z,5.80
2018-07-14T03:06:42.357Z,6.67
2018-07-14T03:12:11.583Z,7.22
2018-07-14T03:17:40.772Z,7.55
2018-07-14T03:23:12.009Z,5.25
2018-07-14T03:28:41.223Z,5.30
2018-07-14T03:34:10.461Z,7.87
2018-07-14T03:39:39.759Z,6.53
2018-07-14T03:45:11.733Z,8.13
2018-07-14T03:50:40.906Z,9.63
2018-07-14T03:56:10.579Z,4.97
2018-07-14T04:01:42.972Z,6.87
2018-07-14T04:07:12.152Z,5.62
2018-07-14T04:12:41.426Z,10.53
2018-07-14T04:18:17.152Z,6.15
2018-07-14T04:23:46.515Z,6.35
2018-07-14T04:29:15.816Z,6.85
2018-07-14T04:34:45.108Z,12.15
2018-07-14T04:40:15.714Z,7.05
2018-07-14T04:45:45.505Z,8.78
2018-07-14T04:51:16.907Z,8.98
2018-07-14T04:56:47.417Z,6.10
2018-07-14T05:02:24.163Z,6.30
2018-07-14T05:07:55.704Z,4.62
2018-07-14T05:13:24.975Z,5.00
2018-07-14T05:18:55.262Z,5.37
2018-07-14T05:24:24.709Z,7.33
2018-07-14T05:29:53.928Z,5.40
2018-07-14T05:35:27.888Z,5.33
2018-07-14T05:40:57.174Z,5.15
2018-07-14T05:46:32.423Z,5.28
2018-07-14T05:52:01.667Z,5.00
2018-07-14T05:57:30.832Z,4.15
2018-07-14T06:03:00.105Z,4.42
2018-07-14T06:08:29.311Z,4.72
2018-07-14T06:13:58.522Z,3.87
2018-07-14T06:19:27.730Z,4.37
2018-07-14T06:24:57.952Z,6.72
2018-07-14T06:30:27.177Z,4.03
2018-07-14T06:35:56.367Z,4.12
2018-07-14T06:41:26.707Z,5.33
2018-07-14T06:46:55.936Z,4.37
2018-07-14T06:52:25.128Z,4.75
2018-07-14T06:57:54.377Z,6.60
2018-07-14T07:03:23.716Z,3.80
2018-07-14T07:08:53.936Z,5.87
2018-07-14T07:14:23.171Z,4.97
2018-07-14T07:19:52.236Z,4.25
2018-07-14T07:25:21.497Z,5.65
2018-07-14T07:30:50.959Z,4.45
2018-07-14T07:36:24.037Z,6.58
2018-07-14T07:41:53.649Z,8.65
2018-07-14T07:47:25.412Z,4.25
2018-07-14T07:52:54.776Z,4.25
2018-07-14T07:58:24.032Z,3.87
2018-07-14T08:03:53.239Z,4.45
2018-07-14T08:09:22.155Z,4.22
2018-07-14T08:14:51.474Z,3.65
2018-07-14T08:20:21.161Z,4.62
2018-07-14T08:25:50.580Z,3.98
2018-07-14T08:31:19.796Z,5.30
2018-07-14T08:36:50.767Z,3.87
2018-07-14T08:42:20.124Z,4.00
2018-07-14T08:47:49.715Z,3.22
2018-07-14T08:53:19.477Z,3.00
2018-07-14T08:58:48.772Z,3.75
2018-07-14T09:04:18.099Z,5.45
2018-07-14T09:09:47.452Z,4.35
2018-07-14T09:15:18.764Z,3.75
2018-07-14T09:20:49.426Z,3.47
2018-07-14T09:26:18.913Z,3.52
2018-07-14T09:31:48.142Z,3.20
2018-07-14T09:37:18.546Z,3.67
2018-07-14T09:42:48.186Z,2.72
2018-07-14T09:48:17.959Z,6.22
2018-07-14T09:53:47.402Z,11.12
2018-07-14T09:59:17.571Z,7.15
2018-07-14T10:04:46.889Z,4.30
2018-07-14T10:10:16.426Z,3.65
2018-07-14T10:15:45.806Z,3.50
2018-07-14T10:21:15.178Z,3.92
2018-07-14T10:26:44.487Z,5.15
2018-07-14T10:32:15.973Z,5.00
2018-07-14T10:37:45.343Z,4.65
2018-07-14T10:43:21.927Z,4.58
2018-07-14T10:48:53.233Z,6.45
2018-07-14T10:54:23.592Z,3.80
2018-07-14T10:59:53.009Z,5.03
2018-07-14T11:05:22.334Z,3.62
2018-07-14T11:10:52.161Z,8.10
2018-07-14T11:16:21.848Z,4.60
2018-07-14T11:21:51.473Z,3.20
2018-07-14T11:27:21.233Z,4.00
2018-07-14T11:32:50.503Z,3.72
2018-07-14T11:38:20.224Z,4.25
2018-07-14T11:43:49.731Z,19.82
2018-07-14T11:49:19.359Z,10.55
2018-07-14T11:54:48.612Z,6.50
2018-07-14T12:00:18.236Z,6.08
2018-07-14T12:05:47.538Z,7.40
2018-07-14T12:11:17.078Z,6.00
2018-07-14T12:16:46.401Z,4.80
2018-07-14T12:22:16.049Z,4.28
2018-07-14T12:27:45.220Z,6.45
2018-07-14T12:33:14.474Z,5.90
2018-07-14T12:38:43.792Z,4.10
2018-07-14T12:44:23.157Z,7.97
2018-07-14T12:49:52.514Z,5.22
2018-07-14T12:55:24.760Z,4.03
2018-07-14T13:00:54.172Z,4.72
2018-07-14T13:06:23.589Z,6.05
2018-07-14T13:11:52.834Z,5.10
2018-07-14T13:17:22.012Z,3.05
2018-07-14T13:22:51.473Z,4.30
2018-07-14T13:28:20.848Z,3.87
2018-07-14T13:33:50.310Z,2.92
2018-07-14T13:39:19.869Z,2.90
2018-07-14T13:44:52.632Z,2.80
2018-07-14T13:50:21.698Z,3.30
2018-07-14T13:55:51.060Z,2.60
2018-07-14T14:01:23.301Z,2.22
2018-07-14T14:06:53.106Z,2.27
2018-07-14T14:12:22.509Z,3.80
2018-07-14T14:17:52.094Z,6.45
2018-07-14T14:23:21.118Z,4.30
2018-07-14T14:28:51.422Z,4.28
2018-07-14T14:34:20.763Z,3.60
2018-07-14T14:39:50.149Z,4.08
2018-07-14T14:45:19.385Z,5.28
2018-07-14T14:50:49.929Z,2.75
2018-07-14T14:56:19.189Z,8.15
2018-07-14T15:01:48.538Z,3.60
2018-07-14T15:07:17.910Z,5.67
2018-07-14T15:12:48.195Z,3.83
2018-07-14T15:18:23.347Z,5.47
2018-07-14T15:23:52.619Z,3.00
2018-07-14T15:29:39.405Z,4.62
2018-07-14T15:35:08.709Z,6.10
2018-07-14T15:40:37.902Z,3.67
2018-07-14T15:46:07.146Z,4.55
2018-07-14T15:51:36.588Z,3.62
2018-07-14T15:57:05.952Z,4.70
2018-07-14T16:02:36.257Z,7.92
2018-07-14T16:08:05.471Z,11.97
2018-07-14T16:13:34.422Z,12.78
2018-07-14T16:19:03.746Z,12.28
2018-07-14T16:24:32.949Z,11.57
2018-07-14T16:30:02.227Z,13.00
2018-07-14T16:35:31.521Z,18.48
2018-07-14T16:41:00.750Z,17.67
2018-07-14T16:46:30.124Z,36.20
2018-07-14T16:51:59.364Z,16.32
2018-07-14T16:57:28.692Z,15.48
2018-07-14T17:02:57.863Z,18.77
2018-07-14T17:08:27.053Z,19.17
2018-07-14T17:13:55.995Z,15.13
2018-07-14T17:19:25.135Z,18.95
2018-07-14T17:24:54.097Z,24.05
2018-07-14T17:30:23.412Z,18.65
2018-07-14T17:35:52.666Z,15.30
2018-07-14T17:41:21.921Z,16.77
2018-07-14T17:46:51.498Z,15.45
2018-07-14T17:52:20.885Z,14.68
2018-07-14T17:57:50.260Z,14.95
2018-07-14T18:03:19.641Z,16.15
2018-07-14T18:08:49.018Z,13.30
2018-07-14T18:14:18.417Z,15.00
2018-07-14T18:19:47.485Z,14.55
2018-07-14T18:25:16.911Z,16.40
2018-07-14T18:30:46.279Z,18.75
2018-07-14T18:36:15.651Z,20.70
2018-07-14T18:41:44.769Z,16.27
2018-07-14T18:47:14.018Z,15.63
2018-07-14T18:52:43.320Z,16.52
2018-07-14T18:58:12.493Z,17.00
2018-07-14T19:03:41.696Z,13.15
2018-07-14T19:09:11.009Z,25.00
2018-07-14T19:14:40.142Z,12.05
2018-07-14T19:20:09.367Z,15.75
2018-07-14T19:25:38.660Z,16.17
2018-07-14T19:31:07.794Z,12.88
2018-07-14T19:36:37.067Z,14.05
2018-07-14T19:42:06.514Z,13.28
2018-07-14T19:47:35.667Z,14.00
2018-07-14T19:53:04.943Z,13.75
2018-07-14T19:58:34.221Z,19.67
2018-07-14T20:04:03.456Z,14.83
2018-07-14T20:09:32.665Z,13.88
2018-07-14T20:15:01.857Z,14.55
2018-07-14T20:20:31.027Z,12.82
2018-07-14T20:26:00.277Z,17.10
2018-07-14T20:31:29.527Z,14.55
2018-07-14T20:36:58.435Z,19.35
2018-07-14T20:42:27.645Z,15.65
2018-07-14T20:47:56.959Z,15.53
2018-07-14T20:53:26.195Z,16.55
2018-07-14T20:58:55.391Z,20.25
2018-07-14T21:04:25.647Z,19.42
2018-07-14T21:09:54.864Z,20.12
2018-07-14T21:15:23.799Z,19.20
2018-07-14T21:20:53.117Z,16.80
2018-07-14T21:26:22.416Z,16.05
2018-07-14T21:31:51.786Z,16.27
2018-07-14T21:37:20.959Z,17.40
2018-07-14T21:42:50.185Z,16.07
2018-07-14T21:48:19.399Z,15.15
2018-07-14T21:53:49.901Z,14.95
2018-07-14T21:59:19.165Z,13.58
2018-07-14T22:04:48.426Z,15.08
2018-07-14T22:10:19.677Z,16.97
2018-07-14T22:15:48.985Z,16.07
2018-07-14T22:21:18.761Z,18.15
2018-07-14T22:26:48.238Z,14.00
2018-07-14T22:32:17.827Z,16.55
2018-07-14T22:37:47.123Z,18.57
2018-07-14T22:43:17.501Z,15.30
2018-07-14T22:48:47.003Z,17.00
2018-07-14T22:54:16.297Z,22.85
2018-07-14T22:59:49.183Z,16.77
2018-07-14T23:05:18.640Z,16.23
2018-07-14T23:10:48.003Z,18.62
2018-07-14T23:16:17.275Z,18.97
2018-07-14T23:21:46.656Z,16.05
2018-07-14T23:27:15.930Z,16.03
2018-07-14T23:32:45.561Z,19.07
2018-07-14T23:38:14.879Z,16.55
2018-07-14T23:43:44.151Z,17.67
2018-07-14T23:49:13.462Z,13.90
2018-07-14T23:54:42.714Z,17.32
